sensor_id;sensor_type;location;lat;lon;timestamp;P1;durP1;ratioP1;P2;durP2;ratioP2
11685;SDS011;5899;51.282;6.094;2023-04-19T00:00:56;12.17;;;9.67;;
11685;SDS011;5899;51.282;6.094;2023-04-19T00:03:24;12.25;;;10.30;;
11685;SDS011;5899;51.282;6.094;2023-04-19T00:05:51;12.52;;;9.85;;
11685;SDS011;5899;51.282;6.094;2023-04-19T00:08:18;11.50;;;9.82;;
11685;SDS011;5899;51.282;6.094;2023-04-19T00:10:45;11.60;;;10.40;;
11685;SDS011;5899;51.282;6.094;2023-04-19T00:13:11;12.90;;;9.48;;
11685;SDS011;5899;51.282;6.094;2023-04-19T00:15:38;11.65;;;9.48;;
11685;SDS011;5899;51.282;6.094;2023-04-19T00:18:04;12.73;;;10.37;;
11685;SDS011;5899;51.282;6.094;2023-04-19T00:20:32;12.63;;;10.38;;
11685;SDS011;5899;51.282;6.094;2023-04-19T00:22:59;10.77;;;9.68;;
11685;SDS011;5899;51.282;6.094;2023-04-19T00:25:25;13.20;;;10.40;;
11685;SDS011;5899;51.282;6.094;2023-04-19T00:27:52;13.95;;;10.30;;
11685;SDS011;5899;51.282;6.094;2023-04-19T00:30:18;11.98;;;10.20;;
11685;SDS011;5899;51.282;6.094;2023-04-19T00:32:45;12.10;;;9.82;;
11685;SDS011;5899;51.282;6.094;2023-04-19T00:35:11;12.18;;;10.25;;
11685;SDS011;5899;51.282;6.094;2023-04-19T00:37:40;13.13;;;10.00;;
11685;SDS011;5899;51.282;6.094;2023-04-19T00:40:06;12.67;;;10.47;;
11685;SDS011;5899;51.282;6.094;2023-04-19T00:42:33;12.68;;;9.48;;
11685;SDS011;5899;51.282;6.094;2023-04-19T00:45:01;12.57;;;10.07;;
11685;SDS011;5899;51.282;6.094;2023-04-19T00:47:27;11.50;;;9.45;;
11685;SDS011;5899;51.282;6.094;2023-04-19T00:49:54;13.65;;;9.88;;
11685;SDS011;5899;51.282;6.094;2023-04-19T00:52:20;11.65;;;10.02;;
11685;SDS011;5899;51.282;6.094;2023-04-19T00:54:48;13.32;;;10.32;;
11685;SDS011;5899;51.282;6.094;2023-04-19T00:57:15;12.32;;;9.93;;
11685;SDS011;5899;51.282;6.094;2023-04-19T00:59:41;13.48;;;10.55;;
11685;SDS011;5899;51.282;6.094;2023-04-19T01:02:11;13.70;;;10.38;;
11685;SDS011;5899;51.282;6.094;2023-04-19T01:04:37;12.63;;;9.77;;
11685;SDS011;5899;51.282;6.094;2023-04-19T01:07:04;13.90;;;10.40;;
11685;SDS011;5899;51.282;6.094;2023-04-19T01:09:31;14.00;;;10.52;;
11685;SDS011;5899;51.282;6.094;2023-04-19T01:11:58;12.73;;;10.40;;
11685;SDS011;5899;51.282;6.094;2023-04-19T01:14:25;14.15;;;10.90;;
11685;SDS011;5899;51.282;6.094;2023-04-19T01:16:52;12.63;;;10.80;;
11685;SDS011;5899;51.282;6.094;2023-04-19T01:19:18;13.43;;;10.85;;
11685;SDS011;5899;51.282;6.094;2023-04-19T01:21:45;13.80;;;10.95;;
11685;SDS011;5899;51.282;6.094;2023-04-19T01:24:14;12.63;;;10.55;;
11685;SDS011;5899;51.282;6.094;2023-04-19T01:26:40;14.45;;;11.27;;
11685;SDS011;5899;51.282;6.094;2023-04-19T01:29:07;14.75;;;11.00;;
11685;SDS011;5899;51.282;6.094;2023-04-19T01:31:33;14.55;;;11.15;;
11685;SDS011;5899;51.282;6.094;2023-04-19T01:33:59;13.93;;;11.25;;
11685;SDS011;5899;51.282;6.094;2023-04-19T01:36:26;13.43;;;11.15;;
11685;SDS011;5899;51.282;6.094;2023-04-19T01:38:52;13.80;;;11.50;;
11685;SDS011;5899;51.282;6.094;2023-04-19T01:41:20;13.38;;;10.80;;
11685;SDS011;5899;51.282;6.094;2023-04-19T01:43:50;15.25;;;11.95;;
11685;SDS011;5899;51.282;6.094;2023-04-19T01:46:17;14.85;;;11.32;;
11685;SDS011;5899;51.282;6.094;2023-04-19T01:48:43;14.18;;;11.40;;
11685;SDS011;5899;51.282;6.094;2023-04-19T01:51:10;14.75;;;11.27;;
11685;SDS011;5899;51.282;6.094;2023-04-19T01:53:36;15.17;;;11.60;;
11685;SDS011;5899;51.282;6.094;2023-04-19T01:56:03;13.52;;;11.20;;
11685;SDS011;5899;51.282;6.094;2023-04-19T01:58:30;14.25;;;11.38;;
11685;SDS011;5899;51.282;6.094;2023-04-19T02:00:57;12.77;;;11.23;;
11685;SDS011;5899;51.282;6.094;2023-04-19T02:03:23;14.70;;;11.48;;
11685;SDS011;5899;51.282;6.094;2023-04-19T02:05:50;15.18;;;11.32;;
11685;SDS011;5899;51.282;6.094;2023-04-19T02:08:16;14.45;;;11.75;;
11685;SDS011;5899;51.282;6.094;2023-04-19T02:10:43;13.80;;;11.50;;
11685;SDS011;5899;51.282;6.094;2023-04-19T02:13:09;14.18;;;11.98;;
11685;SDS011;5899;51.282;6.094;2023-04-19T02:15:37;14.70;;;11.23;;
11685;SDS011;5899;51.282;6.094;2023-04-19T02:18:03;15.70;;;11.70;;
11685;SDS011;5899;51.282;6.094;2023-04-19T02:20:30;14.88;;;11.00;;
11685;SDS011;5899;51.282;6.094;2023-04-19T02:22:57;14.10;;;11.98;;
11685;SDS011;5899;51.282;6.094;2023-04-19T02:25:23;13.93;;;11.30;;
11685;SDS011;5899;51.282;6.094;2023-04-19T02:27:50;15.40;;;12.55;;
11685;SDS011;5899;51.282;6.094;2023-04-19T02:30:16;13.57;;;11.30;;
11685;SDS011;5899;51.282;6.094;2023-04-19T02:32:44;12.80;;;10.55;;
11685;SDS011;5899;51.282;6.094;2023-04-19T02:35:12;13.25;;;11.85;;
11685;SDS011;5899;51.282;6.094;2023-04-19T02:37:39;12.13;;;10.80;;
11685;SDS011;5899;51.282;6.094;2023-04-19T02:40:06;13.82;;;10.77;;
11685;SDS011;5899;51.282;6.094;2023-04-19T02:42:33;15.47;;;11.27;;
11685;SDS011;5899;51.282;6.094;2023-04-19T02:45:01;12.82;;;10.50;;
11685;SDS011;5899;51.282;6.094;2023-04-19T02:47:28;13.07;;;10.48;;
11685;SDS011;5899;51.282;6.094;2023-04-19T02:49:56;12.35;;;10.23;;
11685;SDS011;5899;51.282;6.094;2023-04-19T02:52:24;14.68;;;11.02;;
11685;SDS011;5899;51.282;6.094;2023-04-19T02:54:51;12.30;;;10.70;;
11685;SDS011;5899;51.282;6.094;2023-04-19T02:57:17;12.73;;;10.15;;
11685;SDS011;5899;51.282;6.094;2023-04-19T02:59:43;13.40;;;10.13;;
11685;SDS011;5899;51.282;6.094;2023-04-19T03:02:10;13.60;;;10.32;;
11685;SDS011;5899;51.282;6.094;2023-04-19T03:04:36;12.95;;;10.30;;
11685;SDS011;5899;51.282;6.094;2023-04-19T03:07:04;11.93;;;10.57;;
11685;SDS011;5899;51.282;6.094;2023-04-19T03:09:31;15.57;;;10.40;;
11685;SDS011;5899;51.282;6.094;2023-04-19T03:11:57;13.32;;;9.90;;
11685;SDS011;5899;51.282;6.094;2023-04-19T03:14:25;11.90;;;10.57;;
11685;SDS011;5899;51.282;6.094;2023-04-19T03:16:51;11.93;;;10.15;;
11685;SDS011;5899;51.282;6.094;2023-04-19T03:19:17;12.90;;;10.35;;
11685;SDS011;5899;51.282;6.094;2023-04-19T03:21:44;12.60;;;10.13;;
11685;SDS011;5899;51.282;6.094;2023-04-19T03:24:12;13.80;;;10.60;;
11685;SDS011;5899;51.282;6.094;2023-04-19T03:26:38;11.77;;;9.95;;
11685;SDS011;5899;51.282;6.094;2023-04-19T03:29:05;12.05;;;10.20;;
11685;SDS011;5899;51.282;6.094;2023-04-19T03:31:31;15.57;;;10.98;;
11685;SDS011;5899;51.282;6.094;2023-04-19T03:33:58;12.57;;;10.00;;
11685;SDS011;5899;51.282;6.094;2023-04-19T03:36:24;14.82;;;10.77;;
11685;SDS011;5899;51.282;6.094;2023-04-19T03:38:51;11.27;;;9.80;;
11685;SDS011;5899;51.282;6.094;2023-04-19T03:41:19;12.07;;;9.60;;
11685;SDS011;5899;51.282;6.094;2023-04-19T03:43:47;13.75;;;10.38;;
11685;SDS011;5899;51.282;6.094;2023-04-19T03:46:14;12.18;;;10.02;;
11685;SDS011;5899;51.282;6.094;2023-04-19T03:48:40;13.73;;;10.10;;
11685;SDS011;5899;51.282;6.094;2023-04-19T03:51:06;12.25;;;10.07;;
11685;SDS011;5899;51.282;6.094;2023-04-19T03:53:33;11.52;;;9.45;;
11685;SDS011;5899;51.282;6.094;2023-04-19T03:55:59;10.45;;;9.10;;
11685;SDS011;5899;51.282;6.094;2023-04-19T03:58:27;13.88;;;9.38;;
11685;SDS011;5899;51.282;6.094;2023-04-19T04:00:54;13.25;;;9.55;;
11685;SDS011;5899;51.282;6.094;2023-04-19T04:03:20;12.32;;;9.63;;
11685;SDS011;5899;51.282;6.094;2023-04-19T04:05:47;9.90;;;8.40;;
11685;SDS011;5899;51.282;6.094;2023-04-19T04:08:13;11.32;;;8.77;;
11685;SDS011;5899;51.282;6.094;2023-04-19T04:10:39;12.57;;;9.05;;
11685;SDS011;5899;51.282;6.094;2023-04-19T04:13:06;11.13;;;8.93;;
11685;SDS011;5899;51.282;6.094;2023-04-19T04:15:34;11.75;;;9.02;;
11685;SDS011;5899;51.282;6.094;2023-04-19T04:18:00;11.02;;;8.43;;
11685;SDS011;5899;51.282;6.094;2023-04-19T04:20:27;11.40;;;8.20;;
11685;SDS011;5899;51.282;6.094;2023-04-19T04:22:53;10.48;;;8.00;;
11685;SDS011;5899;51.282;6.094;2023-04-19T04:25:20;10.27;;;8.68;;
11685;SDS011;5899;51.282;6.094;2023-04-19T04:27:49;12.18;;;8.40;;
11685;SDS011;5899;51.282;6.094;2023-04-19T04:30:15;9.52;;;8.52;;
11685;SDS011;5899;51.282;6.094;2023-04-19T04:32:43;9.73;;;8.00;;
11685;SDS011;5899;51.282;6.094;2023-04-19T04:35:11;9.05;;;7.90;;
11685;SDS011;5899;51.282;6.094;2023-04-19T04:37:37;11.52;;;8.70;;
11685;SDS011;5899;51.282;6.094;2023-04-19T04:40:04;11.47;;;8.33;;
11685;SDS011;5899;51.282;6.094;2023-04-19T04:42:32;12.23;;;8.85;;
11685;SDS011;5899;51.282;6.094;2023-04-19T04:44:58;13.60;;;8.98;;
11685;SDS011;5899;51.282;6.094;2023-04-19T04:47:29;12.52;;;9.18;;
11685;SDS011;5899;51.282;6.094;2023-04-19T04:49:57;10.63;;;8.27;;
11685;SDS011;5899;51.282;6.094;2023-04-19T04:52:23;13.90;;;9.03;;
11685;SDS011;5899;51.282;6.094;2023-04-19T04:54:50;8.70;;;7.70;;
11685;SDS011;5899;51.282;6.094;2023-04-19T04:57:16;10.13;;;8.40;;
11685;SDS011;5899;51.282;6.094;2023-04-19T04:59:42;10.20;;;8.98;;
11685;SDS011;5899;51.282;6.094;2023-04-19T05:02:10;11.48;;;8.70;;
11685;SDS011;5899;51.282;6.094;2023-04-19T05:04:36;9.32;;;8.05;;
11685;SDS011;5899;51.282;6.094;2023-04-19T05:07:04;9.47;;;8.37;;
11685;SDS011;5899;51.282;6.094;2023-04-19T05:09:31;9.02;;;8.07;;
11685;SDS011;5899;51.282;6.094;2023-04-19T05:11:57;9.67;;;7.93;;
11685;SDS011;5899;51.282;6.094;2023-04-19T05:14:24;10.57;;;8.13;;
11685;SDS011;5899;51.282;6.094;2023-04-19T05:16:50;9.10;;;7.45;;
11685;SDS011;5899;51.282;6.094;2023-04-19T05:19:16;9.43;;;7.63;;
11685;SDS011;5899;51.282;6.094;2023-04-19T05:21:43;10.25;;;8.02;;
11685;SDS011;5899;51.282;6.094;2023-04-19T05:24:11;8.35;;;6.63;;
11685;SDS011;5899;51.282;6.094;2023-04-19T05:26:37;8.90;;;7.22;;
11685;SDS011;5899;51.282;6.094;2023-04-19T05:29:06;9.10;;;7.18;;
11685;SDS011;5899;51.282;6.094;2023-04-19T05:31:32;9.23;;;7.17;;
11685;SDS011;5899;51.282;6.094;2023-04-19T05:33:59;8.75;;;7.13;;
11685;SDS011;5899;51.282;6.094;2023-04-19T05:36:25;8.70;;;6.90;;
11685;SDS011;5899;51.282;6.094;2023-04-19T05:38:52;10.90;;;6.68;;
11685;SDS011;5899;51.282;6.094;2023-04-19T05:41:20;7.72;;;6.55;;
11685;SDS011;5899;51.282;6.094;2023-04-19T05:43:46;7.47;;;6.40;;
11685;SDS011;5899;51.282;6.094;2023-04-19T05:46:12;7.57;;;6.25;;
11685;SDS011;5899;51.282;6.094;2023-04-19T05:48:41;8.47;;;6.13;;
11685;SDS011;5899;51.282;6.094;2023-04-19T05:51:08;8.07;;;6.00;;
11685;SDS011;5899;51.282;6.094;2023-04-19T05:53:34;6.75;;;5.47;;
11685;SDS011;5899;51.282;6.094;2023-04-19T05:56:01;6.03;;;5.30;;
11685;SDS011;5899;51.282;6.094;2023-04-19T05:58:29;6.43;;;5.20;;
11685;SDS011;5899;51.282;6.094;2023-04-19T06:00:55;7.07;;;5.30;;
11685;SDS011;5899;51.282;6.094;2023-04-19T06:03:22;8.20;;;5.30;;
11685;SDS011;5899;51.282;6.094;2023-04-19T06:05:48;7.30;;;5.50;;
11685;SDS011;5899;51.282;6.094;2023-04-19T06:08:15;5.80;;;5.18;;
11685;SDS011;5899;51.282;6.094;2023-04-19T06:10:41;7.15;;;5.15;;
11685;SDS011;5899;51.282;6.094;2023-04-19T06:13:11;5.60;;;5.00;;
11685;SDS011;5899;51.282;6.094;2023-04-19T06:15:39;5.60;;;4.80;;
11685;SDS011;5899;51.282;6.094;2023-04-19T06:18:05;5.82;;;4.97;;
11685;SDS011;5899;51.282;6.094;2023-04-19T06:20:34;6.83;;;4.70;;
11685;SDS011;5899;51.282;6.094;2023-04-19T06:23:00;5.40;;;4.35;;
11685;SDS011;5899;51.282;6.094;2023-04-19T06:25:27;7.13;;;4.90;;
11685;SDS011;5899;51.282;6.094;2023-04-19T06:27:54;5.60;;;4.85;;
11685;SDS011;5899;51.282;6.094;2023-04-19T06:30:20;5.70;;;4.80;;
11685;SDS011;5899;51.282;6.094;2023-04-19T06:32:48;7.57;;;5.55;;
11685;SDS011;5899;51.282;6.094;2023-04-19T06:35:14;6.10;;;4.80;;
11685;SDS011;5899;51.282;6.094;2023-04-19T06:37:41;6.85;;;5.18;;
11685;SDS011;5899;51.282;6.094;2023-04-19T06:40:08;6.07;;;4.95;;
11685;SDS011;5899;51.282;6.094;2023-04-19T06:42:35;7.03;;;5.50;;
11685;SDS011;5899;51.282;6.094;2023-04-19T06:45:02;6.80;;;4.97;;
11685;SDS011;5899;51.282;6.094;2023-04-19T06:47:29;6.05;;;5.20;;
11685;SDS011;5899;51.282;6.094;2023-04-19T06:49:57;7.25;;;5.03;;
11685;SDS011;5899;51.282;6.094;2023-04-19T06:52:25;6.93;;;5.00;;
11685;SDS011;5899;51.282;6.094;2023-04-19T06:54:52;7.65;;;5.25;;
11685;SDS011;5899;51.282;6.094;2023-04-19T06:57:18;7.05;;;5.03;;
11685;SDS011;5899;51.282;6.094;2023-04-19T06:59:45;8.18;;;5.45;;
11685;SDS011;5899;51.282;6.094;2023-04-19T07:02:11;6.13;;;4.90;;
11685;SDS011;5899;51.282;6.094;2023-04-19T07:04:38;5.85;;;5.25;;
11685;SDS011;5899;51.282;6.094;2023-04-19T07:07:06;5.45;;;4.85;;
11685;SDS011;5899;51.282;6.094;2023-04-19T07:09:32;7.32;;;4.90;;
11685;SDS011;5899;51.282;6.094;2023-04-19T07:11:59;6.05;;;5.18;;
11685;SDS011;5899;51.282;6.094;2023-04-19T07:14:25;6.35;;;5.00;;
11685;SDS011;5899;51.282;6.094;2023-04-19T07:16:52;7.43;;;5.10;;
11685;SDS011;5899;51.282;6.094;2023-04-19T07:19:18;7.30;;;5.68;;
11685;SDS011;5899;51.282;6.094;2023-04-19T07:21:46;6.80;;;5.00;;
11685;SDS011;5899;51.282;6.094;2023-04-19T07:24:14;8.20;;;5.63;;
11685;SDS011;5899;51.282;6.094;2023-04-19T07:26:41;6.72;;;5.20;;
11685;SDS011;5899;51.282;6.094;2023-04-19T07:29:08;6.72;;;5.20;;
11685;SDS011;5899;51.282;6.094;2023-04-19T07:31:34;6.38;;;4.88;;
11685;SDS011;5899;51.282;6.094;2023-04-19T07:34:01;5.97;;;4.90;;
11685;SDS011;5899;51.282;6.094;2023-04-19T07:36:27;7.47;;;5.03;;
11685;SDS011;5899;51.282;6.094;2023-04-19T07:38:55;6.82;;;5.35;;
11685;SDS011;5899;51.282;6.094;2023-04-19T07:41:23;5.83;;;5.07;;
11685;SDS011;5899;51.282;6.094;2023-04-19T07:43:50;6.63;;;4.95;;
11685;SDS011;5899;51.282;6.094;2023-04-19T07:46:16;7.60;;;5.00;;
11685;SDS011;5899;51.282;6.094;2023-04-19T07:48:43;6.00;;;4.90;;
11685;SDS011;5899;51.282;6.094;2023-04-19T07:51:10;6.20;;;4.88;;
11685;SDS011;5899;51.282;6.094;2023-04-19T07:53:38;6.75;;;4.68;;
11685;SDS011;5899;51.282;6.094;2023-04-19T07:56:06;7.32;;;4.53;;
11685;SDS011;5899;51.282;6.094;2023-04-19T07:58:36;5.45;;;4.53;;
11685;SDS011;5899;51.282;6.094;2023-04-19T08:01:03;6.17;;;4.53;;
11685;SDS011;5899;51.282;6.094;2023-04-19T08:03:30;5.03;;;4.45;;
11685;SDS011;5899;51.282;6.094;2023-04-19T08:05:57;5.88;;;4.65;;
11685;SDS011;5899;51.282;6.094;2023-04-19T08:08:23;6.60;;;4.65;;
11685;SDS011;5899;51.282;6.094;2023-04-19T08:10:51;7.30;;;4.90;;
11685;SDS011;5899;51.282;6.094;2023-04-19T08:13:19;6.63;;;4.57;;
11685;SDS011;5899;51.282;6.094;2023-04-19T08:15:47;6.10;;;4.47;;
11685;SDS011;5899;51.282;6.094;2023-04-19T08:18:14;7.72;;;5.00;;
11685;SDS011;5899;51.282;6.094;2023-04-19T08:20:40;5.33;;;4.77;;
11685;SDS011;5899;51.282;6.094;2023-04-19T08:23:07;6.15;;;4.45;;
11685;SDS011;5899;51.282;6.094;2023-04-19T08:25:35;5.63;;;4.45;;
11685;SDS011;5899;51.282;6.094;2023-04-19T08:28:01;5.53;;;4.70;;
11685;SDS011;5899;51.282;6.094;2023-04-19T08:30:28;5.72;;;4.68;;
11685;SDS011;5899;51.282;6.094;2023-04-19T08:32:56;5.95;;;4.43;;
11685;SDS011;5899;51.282;6.094;2023-04-19T08:35:22;5.57;;;4.43;;
11685;SDS011;5899;51.282;6.094;2023-04-19T08:37:49;6.15;;;4.25;;
11685;SDS011;5899;51.282;6.094;2023-04-19T08:40:15;4.82;;;4.00;;
11685;SDS011;5899;51.282;6.094;2023-04-19T08:42:42;5.63;;;4.20;;
11685;SDS011;5899;51.282;6.094;2023-04-19T08:45:09;6.20;;;4.45;;
11685;SDS011;5899;51.282;6.094;2023-04-19T08:47:37;5.90;;;4.30;;
11685;SDS011;5899;51.282;6.094;2023-04-19T08:50:06;6.13;;;4.35;;
11685;SDS011;5899;51.282;6.094;2023-04-19T08:52:34;5.57;;;4.35;;
11685;SDS011;5899;51.282;6.094;2023-04-19T08:55:01;4.72;;;4.07;;
11685;SDS011;5899;51.282;6.094;2023-04-19T08:57:29;5.53;;;4.32;;
11685;SDS011;5899;51.282;6.094;2023-04-19T08:59:55;6.55;;;4.40;;
11685;SDS011;5899;51.282;6.094;2023-04-19T09:02:22;5.03;;;3.92;;
11685;SDS011;5899;51.282;6.094;2023-04-19T09:04:51;5.82;;;4.00;;
11685;SDS011;5899;51.282;6.094;2023-04-19T09:07:25;6.07;;;4.32;;
11685;SDS011;5899;51.282;6.094;2023-04-19T09:10:04;7.38;;;4.32;;
11685;SDS011;5899;51.282;6.094;2023-04-19T09:12:38;4.05;;;3.63;;
11685;SDS011;5899;51.282;6.094;2023-04-19T09:15:06;4.78;;;4.18;;
11685;SDS011;5899;51.282;6.094;2023-04-19T09:17:33;5.28;;;3.90;;
11685;SDS011;5899;51.282;6.094;2023-04-19T09:20:00;5.40;;;4.20;;
11685;SDS011;5899;51.282;6.094;2023-04-19T09:22:29;4.13;;;3.67;;
11685;SDS011;5899;51.282;6.094;2023-04-19T09:24:56;4.35;;;3.63;;
11685;SDS011;5899;51.282;6.094;2023-04-19T09:27:27;5.07;;;3.80;;
11685;SDS011;5899;51.282;6.094;2023-04-19T09:29:56;5.70;;;3.83;;
11685;SDS011;5899;51.282;6.094;2023-04-19T09:32:23;4.93;;;4.13;;
11685;SDS011;5899;51.282;6.094;2023-04-19T09:34:51;3.83;;;3.38;;
11685;SDS011;5899;51.282;6.094;2023-04-19T09:37:18;4.10;;;3.70;;
11685;SDS011;5899;51.282;6.094;2023-04-19T09:39:48;4.13;;;3.60;;
11685;SDS011;5899;51.282;6.094;2023-04-19T09:42:15;4.70;;;4.03;;
11685;SDS011;5899;51.282;6.094;2023-04-19T09:44:54;4.70;;;3.65;;
11685;SDS011;5899;51.282;6.094;2023-04-19T09:47:21;3.75;;;3.13;;
11685;SDS011;5899;51.282;6.094;2023-04-19T09:50:02;4.70;;;3.43;;
11685;SDS011;5899;51.282;6.094;2023-04-19T09:52:29;4.43;;;3.15;;
11685;SDS011;5899;51.282;6.094;2023-04-19T09:54:57;3.90;;;3.42;;
11685;SDS011;5899;51.282;6.094;2023-04-19T09:57:24;3.80;;;3.22;;
11685;SDS011;5899;51.282;6.094;2023-04-19T09:59:53;3.97;;;3.22;;
11685;SDS011;5899;51.282;6.094;2023-04-19T10:02:19;3.50;;;2.92;;
11685;SDS011;5899;51.282;6.094;2023-04-19T10:04:47;3.75;;;2.90;;
11685;SDS011;5899;51.282;6.094;2023-04-19T10:07:14;3.88;;;3.00;;
11685;SDS011;5899;51.282;6.094;2023-04-19T10:09:40;4.25;;;3.05;;
11685;SDS011;5899;51.282;6.094;2023-04-19T10:12:11;5.30;;;2.80;;
11685;SDS011;5899;51.282;6.094;2023-04-19T10:14:40;3.80;;;2.90;;
11685;SDS011;5899;51.282;6.094;2023-04-19T10:17:07;4.00;;;2.60;;
11685;SDS011;5899;51.282;6.094;2023-04-19T10:19:36;2.95;;;2.65;;
11685;SDS011;5899;51.282;6.094;2023-04-19T10:22:04;3.67;;;2.70;;
11685;SDS011;5899;51.282;6.094;2023-04-19T10:24:32;3.00;;;2.70;;
11685;SDS011;5899;51.282;6.094;2023-04-19T10:27:06;3.05;;;2.45;;
11685;SDS011;5899;51.282;6.094;2023-04-19T10:29:54;3.58;;;2.85;;
11685;SDS011;5899;51.282;6.094;2023-04-19T10:32:21;3.22;;;2.63;;
11685;SDS011;5899;51.282;6.094;2023-04-19T10:34:48;2.90;;;2.63;;
11685;SDS011;5899;51.282;6.094;2023-04-19T10:37:16;3.13;;;2.50;;
11685;SDS011;5899;51.282;6.094;2023-04-19T10:39:48;2.83;;;2.53;;
11685;SDS011;5899;51.282;6.094;2023-04-19T10:42:15;2.70;;;2.40;;
11685;SDS011;5899;51.282;6.094;2023-04-19T10:44:41;2.58;;;2.38;;
11685;SDS011;5899;51.282;6.094;2023-04-19T10:47:09;2.28;;;2.08;;
11685;SDS011;5899;51.282;6.094;2023-04-19T10:49:45;4.20;;;2.30;;
11685;SDS011;5899;51.282;6.094;2023-04-19T10:52:25;3.33;;;2.03;;
11685;SDS011;5899;51.282;6.094;2023-04-19T10:54:54;2.85;;;2.10;;
11685;SDS011;5899;51.282;6.094;2023-04-19T10:57:21;2.08;;;1.88;;
11685;SDS011;5899;51.282;6.094;2023-04-19T11:00:16;2.33;;;2.13;;
11685;SDS011;5899;51.282;6.094;2023-04-19T11:02:43;2.17;;;1.90;;
11685;SDS011;5899;51.282;6.094;2023-04-19T11:05:09;2.78;;;2.13;;
11685;SDS011;5899;51.282;6.094;2023-04-19T11:07:38;2.60;;;2.00;;
11685;SDS011;5899;51.282;6.094;2023-04-19T11:10:06;2.25;;;1.85;;
11685;SDS011;5899;51.282;6.094;2023-04-19T11:12:32;3.03;;;2.00;;
11685;SDS011;5899;51.282;6.094;2023-04-19T11:15:00;4.00;;;2.00;;
11685;SDS011;5899;51.282;6.094;2023-04-19T11:17:27;4.10;;;2.10;;
11685;SDS011;5899;51.282;6.094;2023-04-19T11:19:57;3.00;;;2.28;;
11685;SDS011;5899;51.282;6.094;2023-04-19T11:22:30;3.25;;;2.20;;
11685;SDS011;5899;51.282;6.094;2023-04-19T11:25:03;3.88;;;1.90;;
11685;SDS011;5899;51.282;6.094;2023-04-19T11:27:30;4.22;;;2.13;;
11685;SDS011;5899;51.282;6.094;2023-04-19T11:30:00;2.92;;;2.33;;
11685;SDS011;5899;51.282;6.094;2023-04-19T11:32:27;4.13;;;2.47;;
11685;SDS011;5899;51.282;6.094;2023-04-19T11:34:54;3.00;;;2.33;;
11685;SDS011;5899;51.282;6.094;2023-04-19T11:37:22;2.50;;;2.20;;
11685;SDS011;5899;51.282;6.094;2023-04-19T11:39:49;3.15;;;2.33;;
11685;SDS011;5899;51.282;6.094;2023-04-19T11:42:16;3.37;;;2.23;;
11685;SDS011;5899;51.282;6.094;2023-04-19T11:44:48;2.60;;;2.40;;
11685;SDS011;5899;51.282;6.094;2023-04-19T11:47:14;2.47;;;2.20;;
11685;SDS011;5899;51.282;6.094;2023-04-19T11:49:41;3.83;;;2.30;;
11685;SDS011;5899;51.282;6.094;2023-04-19T11:52:07;2.38;;;2.05;;
11685;SDS011;5899;51.282;6.094;2023-04-19T11:54:37;2.50;;;2.08;;
11685;SDS011;5899;51.282;6.094;2023-04-19T11:57:04;3.33;;;2.25;;
11685;SDS011;5899;51.282;6.094;2023-04-19T11:59:31;2.20;;;2.00;;
11685;SDS011;5899;51.282;6.094;2023-04-19T12:02:05;2.50;;;2.30;;
11685;SDS011;5899;51.282;6.094;2023-04-19T12:04:31;2.42;;;2.05;;
11685;SDS011;5899;51.282;6.094;2023-04-19T12:06:58;2.88;;;2.30;;
11685;SDS011;5899;51.282;6.094;2023-04-19T12:09:25;3.42;;;2.28;;
11685;SDS011;5899;51.282;6.094;2023-04-19T12:11:53;2.88;;;2.17;;
11685;SDS011;5899;51.282;6.094;2023-04-19T12:14:21;3.83;;;2.50;;
11685;SDS011;5899;51.282;6.094;2023-04-19T12:17:07;2.42;;;2.13;;
11685;SDS011;5899;51.282;6.094;2023-04-19T12:19:35;3.00;;;2.40;;
11685;SDS011;5899;51.282;6.094;2023-04-19T12:22:12;2.28;;;2.08;;
11685;SDS011;5899;51.282;6.094;2023-04-19T12:24:40;2.63;;;2.20;;
11685;SDS011;5899;51.282;6.094;2023-04-19T12:27:08;2.88;;;2.13;;
11685;SDS011;5899;51.282;6.094;2023-04-19T12:29:37;2.90;;;2.28;;
11685;SDS011;5899;51.282;6.094;2023-04-19T12:32:04;2.58;;;2.38;;
11685;SDS011;5899;51.282;6.094;2023-04-19T12:34:30;3.28;;;2.13;;
11685;SDS011;5899;51.282;6.094;2023-04-19T12:36:59;2.90;;;2.40;;
11685;SDS011;5899;51.282;6.094;2023-04-19T12:39:25;2.40;;;2.05;;
11685;SDS011;5899;51.282;6.094;2023-04-19T12:41:52;2.22;;;2.03;;
11685;SDS011;5899;51.282;6.094;2023-04-19T12:44:23;2.38;;;2.17;;
11685;SDS011;5899;51.282;6.094;2023-04-19T12:46:50;2.78;;;2.50;;
11685;SDS011;5899;51.282;6.094;2023-04-19T12:49:21;2.90;;;2.60;;
11685;SDS011;5899;51.282;6.094;2023-04-19T12:51:47;2.65;;;2.40;;
11685;SDS011;5899;51.282;6.094;2023-04-19T12:54:14;3.28;;;2.13;;
11685;SDS011;5899;51.282;6.094;2023-04-19T12:56:40;3.92;;;2.40;;
11685;SDS011;5899;51.282;6.094;2023-04-19T12:59:07;3.63;;;2.65;;
11685;SDS011;5899;51.282;6.094;2023-04-19T13:01:35;2.72;;;2.53;;
11685;SDS011;5899;51.282;6.094;2023-04-19T13:04:01;2.85;;;2.50;;
11685;SDS011;5899;51.282;6.094;2023-04-19T13:06:28;5.50;;;2.85;;
11685;SDS011;5899;51.282;6.094;2023-04-19T13:08:55;3.22;;;2.67;;
11685;SDS011;5899;51.282;6.094;2023-04-19T13:11:23;4.40;;;2.50;;
11685;SDS011;5899;51.282;6.094;2023-04-19T13:13:49;2.70;;;2.50;;
11685;SDS011;5899;51.282;6.094;2023-04-19T13:16:17;4.65;;;2.45;;
11685;SDS011;5899;51.282;6.094;2023-04-19T13:18:46;3.22;;;2.40;;
11685;SDS011;5899;51.282;6.094;2023-04-19T13:21:12;3.08;;;2.50;;
11685;SDS011;5899;51.282;6.094;2023-04-19T13:23:41;3.42;;;2.40;;
11685;SDS011;5899;51.282;6.094;2023-04-19T13:26:07;2.83;;;2.63;;
11685;SDS011;5899;51.282;6.094;2023-04-19T13:28:34;2.90;;;2.60;;
11685;SDS011;5899;51.282;6.094;2023-04-19T13:31:04;4.38;;;2.60;;
11685;SDS011;5899;51.282;6.094;2023-04-19T13:33:31;3.90;;;2.45;;
11685;SDS011;5899;51.282;6.094;2023-04-19T13:35:59;3.40;;;2.65;;
11685;SDS011;5899;51.282;6.094;2023-04-19T13:38:25;2.97;;;2.67;;
11685;SDS011;5899;51.282;6.094;2023-04-19T13:40:52;6.63;;;2.80;;
11685;SDS011;5899;51.282;6.094;2023-04-19T13:43:18;3.05;;;2.53;;
11685;SDS011;5899;51.282;6.094;2023-04-19T13:45:45;3.60;;;2.60;;
11685;SDS011;5899;51.282;6.094;2023-04-19T13:48:11;2.92;;;2.58;;
11685;SDS011;5899;51.282;6.094;2023-04-19T13:50:38;2.83;;;2.50;;
11685;SDS011;5899;51.282;6.094;2023-04-19T13:53:06;4.32;;;2.72;;
11685;SDS011;5899;51.282;6.094;2023-04-19T13:55:32;3.08;;;2.35;;
11685;SDS011;5899;51.282;6.094;2023-04-19T13:57:59;2.90;;;2.42;;
11685;SDS011;5899;51.282;6.094;2023-04-19T14:00:26;4.60;;;2.67;;
11685;SDS011;5899;51.282;6.094;2023-04-19T14:02:53;3.10;;;2.80;;
11685;SDS011;5899;51.282;6.094;2023-04-19T14:05:19;4.27;;;2.60;;
11685;SDS011;5899;51.282;6.094;2023-04-19T14:07:47;3.38;;;2.63;;
11685;SDS011;5899;51.282;6.094;2023-04-19T14:10:15;3.53;;;2.45;;
11685;SDS011;5899;51.282;6.094;2023-04-19T14:12:41;3.13;;;2.70;;
11685;SDS011;5899;51.282;6.094;2023-04-19T14:15:09;5.63;;;2.70;;
11685;SDS011;5899;51.282;6.094;2023-04-19T14:17:36;3.33;;;2.60;;
11685;SDS011;5899;51.282;6.094;2023-04-19T14:20:02;3.83;;;2.90;;
11685;SDS011;5899;51.282;6.094;2023-04-19T14:22:29;3.33;;;2.67;;
11685;SDS011;5899;51.282;6.094;2023-04-19T14:24:56;3.50;;;2.88;;
11685;SDS011;5899;51.282;6.094;2023-04-19T14:27:24;3.65;;;2.83;;
11685;SDS011;5899;51.282;6.094;2023-04-19T14:29:51;3.83;;;2.80;;
11685;SDS011;5899;51.282;6.094;2023-04-19T14:32:17;3.38;;;3.00;;
11685;SDS011;5899;51.282;6.094;2023-04-19T14:34:44;3.80;;;2.70;;
11685;SDS011;5899;51.282;6.094;2023-04-19T14:37:10;3.72;;;2.97;;
11685;SDS011;5899;51.282;6.094;2023-04-19T14:39:37;3.10;;;2.80;;
11685;SDS011;5899;51.282;6.094;2023-04-19T14:42:04;4.03;;;3.08;;
11685;SDS011;5899;51.282;6.094;2023-04-19T14:44:31;3.55;;;2.92;;
11685;SDS011;5899;51.282;6.094;2023-04-19T14:47:00;3.83;;;3.03;;
11685;SDS011;5899;51.282;6.094;2023-04-19T14:49:26;3.90;;;2.97;;
11685;SDS011;5899;51.282;6.094;2023-04-19T14:51:53;3.58;;;2.88;;
11685;SDS011;5899;51.282;6.094;2023-04-19T14:54:19;4.93;;;2.95;;